First Coast — WCR9075 — position and weather

sailwx.info

Track history (hours):
 
Tides and Currents Weather Stations Pressure Air Temp Water Temp Dewpoint Dewpoint Depression Visibility Wind Speed Wind Dir Waves Ship Positions

First Coast

Owner: DANN MARINE TOWING L C, CHESAPEAKE CITY, MD. More information available from US FCC via Universal Licensing System and Coast Guard Vessel Documentation Center.

Last reported at 2015-Mar-30 17:26 UTC. Time now 2015-Apr-01 13:16 UTC.
Position N 34°32' W 076°37'.

; draft 3.5 m.

Type: Tug. MMSI: 367024280.

Date/timePositionNaut miles runAvg speedWind from/ knotsBaromVisibWave heightAir tempDewpointWater temp
2015-Mar-30 17:26N 34°32' W 076°37'5 6.1
2015-Mar-30 16:33N 34°36' W 076°41'5 5.3
2015-Mar-30 15:34N 34°41' W 076°40'3 2.6
2015-Mar-30 14:33N 34°43' W 076°42'0 0.1
2015-Mar-30 13:34N 34°43' W 076°42'0 0.0
2015-Mar-30 12:34N 34°43' W 076°42'0 0.0
2015-Mar-30 11:33N 34°43' W 076°42'0 0.0
2015-Mar-30 10:34N 34°43' W 076°42'0 0.0
2015-Mar-30 09:34N 34°43' W 076°42'6 6.0
2015-Mar-30 08:33N 34°37' W 076°41'207 7.1
2015-Mar-29 03:33N 38°03' W 076°16'5510.2
2015-Mar-28 22:12N 38°57' W 076°24'910.7
2015-Mar-28 21:22N 39°06' W 076°20'20 9.0
2015-Mar-28 19:09N 39°23' W 076°07'5 9.0
2015-Mar-28 18:33N 39°26' W 076°01'8 8.3
2015-Mar-28 17:33N 39°31' W 075°53'3 2.7
2015-Mar-28 16:33N 39°32' W 075°50'0 0.0
2015-Mar-28 15:33N 39°32' W 075°50'0 0.0
2015-Mar-28 14:34N 39°32' W 075°50'6 5.6
2015-Mar-28 13:33N 39°33' W 075°42'7 7.2
2015-Mar-28 12:33N 39°37' W 075°35'9 9.1
2015-Mar-28 11:33N 39°45' W 075°30'5 4.7
2015-Mar-28 10:33N 39°48' W 075°25'3 3.2
2015-Mar-28 09:33N 39°46' W 075°28'9 8.6
2015-Mar-28 08:33N 39°39' W 075°34'5 5.4
2015-Mar-28 07:33N 39°33' W 075°36'7 6.5
2015-Mar-28 06:33N 39°32' W 075°44'6 6.5
2015-Mar-28 05:34N 39°31' W 075°52'7 7.3
2015-Mar-28 04:33N 39°27' W 075°60'7 6.7
2015-Mar-28 03:33N 39°23' W 076°06'7 6.0
2015-Mar-28 02:18N 39°18' W 076°14'12 6.0
2015-Mar-28 00:19N 39°07' W 076°20'5 6.2
2015-Mar-27 23:32N 39°02' W 076°21'6 6.1
2015-Mar-27 22:33N 38°56' W 076°24'6 6.0
2015-Mar-27 21:32N 38°51' W 076°27'49 4.8
2015-Mar-27 11:23N 38°02' W 076°16'4 4.9
2015-Mar-27 10:32N 37°58' W 076°14'9 0.3
2015-Mar-25 23:34N 38°07' W 076°16'50 8.3
2015-Mar-25 17:33N 38°56' W 076°24'8 8.1
2015-Mar-25 16:34N 39°04' W 076°21'75 2.1
2015-Mar-24 04:34N 39°54' W 075°09'0 0.0
2015-Mar-24 03:33N 39°54' W 075°09'0 0.0
2015-Mar-24 02:33N 39°54' W 075°09'0 0.0
2015-Mar-24 01:33N 39°54' W 075°09'0 0.0
2015-Mar-24 00:33N 39°54' W 075°09'0 0.0
2015-Mar-23 23:33N 39°54' W 075°09'0 0.0
2015-Mar-23 22:34N 39°54' W 075°09'0 0.0
2015-Mar-23 21:34N 39°54' W 075°09'0 0.0
2015-Mar-23 20:33N 39°54' W 075°09'3 2.8
2015-Mar-23 19:33N 39°57' W 075°08'3 3.3
2015-Mar-23 18:33N 39°59' W 075°05'5 5.0
2015-Mar-23 17:34N 39°54' W 075°08'1 0.7
2015-Mar-23 16:34N 39°54' W 075°09'0 0.0
2015-Mar-23 15:34N 39°54' W 075°09'0 0.0
2015-Mar-23 14:34N 39°54' W 075°09'0 0.0
2015-Mar-23 13:33N 39°54' W 075°09'0 0.0
2015-Mar-23 12:34N 39°54' W 075°09'0 0.0
2015-Mar-23 11:34N 39°54' W 075°09'0 0.0
2015-Mar-23 10:33N 39°54' W 075°09'0 0.0
2015-Mar-23 09:33N 39°54' W 075°09'0 0.0
2015-Mar-23 08:34N 39°54' W 075°09'0 0.0
2015-Mar-23 07:33N 39°54' W 075°09'0 0.0
2015-Mar-23 06:34N 39°54' W 075°09'0 0.0
2015-Mar-23 05:34N 39°54' W 075°09'0 0.0
2015-Mar-23 04:33N 39°54' W 075°09'0 0.0
2015-Mar-23 03:33N 39°54' W 075°09'0 0.0
2015-Mar-23 02:34N 39°54' W 075°09'0 0.0
2015-Mar-23 01:34N 39°54' W 075°09'0 0.0
2015-Mar-23 00:34N 39°54' W 075°09'0 0.0
2015-Mar-22 23:34N 39°54' W 075°09'3 2.9
2015-Mar-22 22:33N 39°54' W 075°12'5 4.7
2015-Mar-22 21:34N 39°51' W 075°17'7 6.6
2015-Mar-22 20:34N 39°48' W 075°25'1 1.3
2015-Mar-22 19:33N 39°47' W 075°27'6 5.6
2015-Mar-22 18:33N 39°43' W 075°30'7 7.4
2015-Mar-22 17:34N 39°36' W 075°34'5 4.9
2015-Mar-22 16:33N 39°33' W 075°39'7 7.4
2015-Mar-22 15:34N 39°32' W 075°49'8 7.8
2015-Mar-22 14:33N 39°28' W 075°58'8 7.8
2015-Mar-22 13:33N 39°23' W 076°05'8 7.6
2015-Mar-22 12:33N 39°19' W 076°13'14 7.0
2015-Mar-22 10:31N 39°05' W 076°19'8 7.3
2015-Mar-22 09:26N 38°58' W 076°24'7 7.2
2015-Mar-22 08:30N 38°52' W 076°27'49 1.3
2015-Mar-20 18:17N 38°03' W 076°16'6 8.3
2015-Mar-20 17:33N 38°09' W 076°16'  
Track history (hours):
 
Tides and Currents Weather Stations Pressure Air Temp Water Temp Dewpoint Dewpoint Depression Visibility Wind Speed Wind Dir Waves Ship Positions

First Coast

Owner: DANN MARINE TOWING L C, CHESAPEAKE CITY, MD. More information available from US FCC via Universal Licensing System and Coast Guard Vessel Documentation Center.

Last reported at 2015-Mar-30 17:26 UTC. Time now 2015-Apr-01 13:16 UTC.
Position N 34°32' W 076°37'.

; draft 3.5 m.

Type: Tug. MMSI: 367024280.

Date/timePositionNaut miles runAvg speedWind from/ knotsBaromVisibWave heightAir tempDewpointWater temp
2015-Mar-30 17:26N 34°32' W 076°37'5 6.1
2015-Mar-30 16:33N 34°36' W 076°41'5 5.3
2015-Mar-30 15:34N 34°41' W 076°40'3 2.6
2015-Mar-30 14:33N 34°43' W 076°42'0 0.1
2015-Mar-30 13:34N 34°43' W 076°42'0 0.0
2015-Mar-30 12:34N 34°43' W 076°42'0 0.0
2015-Mar-30 11:33N 34°43' W 076°42'0 0.0
2015-Mar-30 10:34N 34°43' W 076°42'0 0.0
2015-Mar-30 09:34N 34°43' W 076°42'6 6.0
2015-Mar-30 08:33N 34°37' W 076°41'207 7.1
2015-Mar-29 03:33N 38°03' W 076°16'5510.2
2015-Mar-28 22:12N 38°57' W 076°24'910.7
2015-Mar-28 21:22N 39°06' W 076°20'20 9.0
2015-Mar-28 19:09N 39°23' W 076°07'5 9.0
2015-Mar-28 18:33N 39°26' W 076°01'8 8.3
2015-Mar-28 17:33N 39°31' W 075°53'3 2.7
2015-Mar-28 16:33N 39°32' W 075°50'0 0.0
2015-Mar-28 15:33N 39°32' W 075°50'0 0.0
2015-Mar-28 14:34N 39°32' W 075°50'6 5.6
2015-Mar-28 13:33N 39°33' W 075°42'7 7.2
2015-Mar-28 12:33N 39°37' W 075°35'9 9.1
2015-Mar-28 11:33N 39°45' W 075°30'5 4.7
2015-Mar-28 10:33N 39°48' W 075°25'3 3.2
2015-Mar-28 09:33N 39°46' W 075°28'9 8.6
2015-Mar-28 08:33N 39°39' W 075°34'5 5.4
2015-Mar-28 07:33N 39°33' W 075°36'7 6.5
2015-Mar-28 06:33N 39°32' W 075°44'6 6.5
2015-Mar-28 05:34N 39°31' W 075°52'7 7.3
2015-Mar-28 04:33N 39°27' W 075°60'7 6.7
2015-Mar-28 03:33N 39°23' W 076°06'7 6.0
2015-Mar-28 02:18N 39°18' W 076°14'12 6.0
2015-Mar-28 00:19N 39°07' W 076°20'5 6.2
2015-Mar-27 23:32N 39°02' W 076°21'6 6.1
2015-Mar-27 22:33N 38°56' W 076°24'6 6.0
2015-Mar-27 21:32N 38°51' W 076°27'49 4.8
2015-Mar-27 11:23N 38°02' W 076°16'4 4.9
2015-Mar-27 10:32N 37°58' W 076°14'9 0.3
2015-Mar-25 23:34N 38°07' W 076°16'50 8.3
2015-Mar-25 17:33N 38°56' W 076°24'8 8.1
2015-Mar-25 16:34N 39°04' W 076°21'75 2.1
2015-Mar-24 04:34N 39°54' W 075°09'0 0.0
2015-Mar-24 03:33N 39°54' W 075°09'0 0.0
2015-Mar-24 02:33N 39°54' W 075°09'0 0.0
2015-Mar-24 01:33N 39°54' W 075°09'0 0.0
2015-Mar-24 00:33N 39°54' W 075°09'0 0.0
2015-Mar-23 23:33N 39°54' W 075°09'0 0.0
2015-Mar-23 22:34N 39°54' W 075°09'0 0.0
2015-Mar-23 21:34N 39°54' W 075°09'0 0.0
2015-Mar-23 20:33N 39°54' W 075°09'3 2.8
2015-Mar-23 19:33N 39°57' W 075°08'3 3.3
2015-Mar-23 18:33N 39°59' W 075°05'5 5.0
2015-Mar-23 17:34N 39°54' W 075°08'1 0.7
2015-Mar-23 16:34N 39°54' W 075°09'0 0.0
2015-Mar-23 15:34N 39°54' W 075°09'0 0.0
2015-Mar-23 14:34N 39°54' W 075°09'0 0.0
2015-Mar-23 13:33N 39°54' W 075°09'0 0.0
2015-Mar-23 12:34N 39°54' W 075°09'0 0.0
2015-Mar-23 11:34N 39°54' W 075°09'0 0.0
2015-Mar-23 10:33N 39°54' W 075°09'0 0.0
2015-Mar-23 09:33N 39°54' W 075°09'0 0.0
2015-Mar-23 08:34N 39°54' W 075°09'0 0.0
2015-Mar-23 07:33N 39°54' W 075°09'0 0.0
2015-Mar-23 06:34N 39°54' W 075°09'0 0.0
2015-Mar-23 05:34N 39°54' W 075°09'0 0.0
2015-Mar-23 04:33N 39°54' W 075°09'0 0.0
2015-Mar-23 03:33N 39°54' W 075°09'0 0.0
2015-Mar-23 02:34N 39°54' W 075°09'0 0.0
2015-Mar-23 01:34N 39°54' W 075°09'0 0.0
2015-Mar-23 00:34N 39°54' W 075°09'0 0.0
2015-Mar-22 23:34N 39°54' W 075°09'3 2.9
2015-Mar-22 22:33N 39°54' W 075°12'5 4.7
2015-Mar-22 21:34N 39°51' W 075°17'7 6.6
2015-Mar-22 20:34N 39°48' W 075°25'1 1.3
2015-Mar-22 19:33N 39°47' W 075°27'6 5.6
2015-Mar-22 18:33N 39°43' W 075°30'7 7.4
2015-Mar-22 17:34N 39°36' W 075°34'5 4.9
2015-Mar-22 16:33N 39°33' W 075°39'7 7.4
2015-Mar-22 15:34N 39°32' W 075°49'8 7.8
2015-Mar-22 14:33N 39°28' W 075°58'8 7.8
2015-Mar-22 13:33N 39°23' W 076°05'8 7.6
2015-Mar-22 12:33N 39°19' W 076°13'14 7.0
2015-Mar-22 10:31N 39°05' W 076°19'8 7.3
2015-Mar-22 09:26N 38°58' W 076°24'7 7.2
2015-Mar-22 08:30N 38°52' W 076°27'49 1.3
2015-Mar-20 18:17N 38°03' W 076°16'6 8.3
2015-Mar-20 17:33N 38°09' W 076°16'  

Dump ship's entire track history